Time;durP1;ratioP1;P1;durP2;ratioP2;P2;SDS_P1;SDS_P2;PMS_P1;PMS_P2;Temp;Humidity;BMP_temperature;BMP_pressure;BME280_temperature;BME280_humidity;BME280_pressure;Samples;Min_cycle;Max_cycle;Signal;HPM_P1;HPM_P2
2022/04/30 00:02:16;;;;;;;10.07;5.80;;;8.50;95.80;;;;;;5011830;28;20481;-76
2022/04/30 00:04:45;;;;;;;7.20;5.50;;;8.50;96.00;;;;;;5016285;28;20440;-77
2022/04/30 00:07:16;;;;;;;11.77;6.13;;;8.50;96.30;;;;;;5006539;28;20052;-77
2022/04/30 00:09:42;;;;;;;9.40;5.35;;;8.50;96.10;;;;;;5004661;28;20041;-77
2022/04/30 00:12:09;;;;;;;9.13;5.55;;;8.50;96.20;;;;;;5040087;28;20033;-76
2022/04/30 00:14:35;;;;;;;8.70;6.03;;;8.50;96.60;;;;;;4989013;28;20045;-76
2022/04/30 00:17:00;;;;;;;15.98;5.30;;;8.40;97.30;;;;;;5006179;28;20551;-76
2022/04/30 00:19:27;;;;;;;10.82;5.80;;;8.50;97.60;;;;;;5041354;28;20329;-76
2022/04/30 00:21:52;;;;;;;10.38;6.30;;;8.40;97.90;;;;;;5004943;28;20116;-76
2022/04/30 00:24:18;;;;;;;9.82;6.47;;;8.50;98.10;;;;;;5007674;28;20049;-76
2022/04/30 00:26:43;;;;;;;10.27;6.15;;;8.50;97.20;;;;;;4993353;28;20337;-76
2022/04/30 00:29:10;;;;;;;8.63;5.57;;;8.50;97.40;;;;;;5019155;28;20498;-76
2022/04/30 00:31:36;;;;;;;10.85;6.07;;;8.50;98.20;;;;;;5041862;28;20400;-76
2022/04/30 00:34:02;;;;;;;11.25;5.65;;;8.50;98.40;;;;;;5027137;28;20026;-76
2022/04/30 00:36:28;;;;;;;8.65;5.05;;;8.40;98.50;;;;;;5009310;28;20269;-76
2022/04/30 00:38:54;;;;;;;10.35;6.03;;;8.40;98.10;;;;;;5025177;28;20083;-76
2022/04/30 00:41:21;;;;;;;7.88;5.45;;;8.40;98.40;;;;;;5043019;28;20469;-76
2022/04/30 00:43:48;;;;;;;13.63;5.60;;;8.30;98.70;;;;;;5038926;28;20021;-76
2022/04/30 00:46:20;;;;;;;12.30;6.28;;;8.40;98.50;;;;;;5025728;28;20045;-76
2022/04/30 00:48:46;;;;;;;7.82;5.32;;;8.30;99.00;;;;;;5026619;28;20487;-76
2022/04/30 00:51:15;;;;;;;11.70;5.65;;;8.30;98.60;;;;;;5029752;28;20112;-76
2022/04/30 00:53:44;;;;;;;10.63;5.40;;;8.30;99.60;;;;;;5040837;28;20431;-76
2022/04/30 00:56:12;;;;;;;8.68;5.93;;;8.30;98.80;;;;;;5026379;28;20045;-76
2022/04/30 00:58:41;;;;;;;11.95;6.22;;;8.30;99.00;;;;;;5044034;28;20131;-76
2022/04/30 01:01:07;;;;;;;13.82;6.43;;;8.20;99.40;;;;;;5028718;28;20026;-76
2022/04/30 01:03:32;;;;;;;10.63;5.40;;;8.20;99.90;;;;;;5029554;28;20033;-76
2022/04/30 01:06:01;;;;;;;10.55;6.03;;;8.20;99.10;;;;;;5043114;28;20036;-76
2022/04/30 01:08:27;;;;;;;8.93;5.65;;;8.10;99.60;;;;;;5042366;28;20026;-76
2022/04/30 01:10:56;;;;;;;11.90;5.10;;;8.10;99.90;;;;;;5006367;28;20035;-76
2022/04/30 01:13:22;;;;;;;9.30;4.88;;;8.10;99.90;;;;;;5026914;28;20038;-76
2022/04/30 01:15:50;;;;;;;9.25;5.97;;;8.00;99.90;;;;;;5026816;28;20425;-76
2022/04/30 01:18:16;;;;;;;9.20;5.72;;;8.00;99.90;;;;;;5025775;28;20036;-76
2022/04/30 01:20:43;;;;;;;10.00;5.57;;;7.90;99.90;;;;;;5026542;28;20033;-76
2022/04/30 01:23:09;;;;;;;8.75;6.25;;;7.80;99.90;;;;;;5024437;28;20056;-76
2022/04/30 01:25:35;;;;;;;9.48;5.25;;;7.80;99.90;;;;;;5025038;28;20033;-76
2022/04/30 01:28:01;;;;;;;9.77;5.05;;;7.80;99.90;;;;;;5024626;28;20029;-76
2022/04/30 01:30:27;;;;;;;9.25;5.75;;;7.70;99.90;;;;;;5024595;28;20603;-76
2022/04/30 01:38:21;;;;;;;10.00;6.05;;;7.60;99.90;;;;;;5024214;28;20044;-76
2022/04/30 01:40:47;;;;;;;15.30;5.45;;;7.50;99.90;;;;;;5008658;28;20038;-76
2022/04/30 01:43:12;;;;;;;8.40;5.32;;;7.40;99.90;;;;;;5021203;28;20033;-76
2022/04/30 01:45:38;;;;;;;7.63;4.95;;;7.40;99.90;;;;;;5007077;28;20026;-76
2022/04/30 01:48:04;;;;;;;9.02;6.25;;;7.40;99.90;;;;;;5009365;28;20033;-76
2022/04/30 01:50:31;;;;;;;7.68;5.18;;;7.30;99.90;;;;;;5040330;28;20037;-76
2022/04/30 01:52:57;;;;;;;7.22;5.00;;;7.30;99.90;;;;;;5012180;28;20030;-76
2022/04/30 01:55:22;;;;;;;8.15;4.70;;;7.20;99.90;;;;;;5027839;28;20713;-76
2022/04/30 01:57:48;;;;;;;8.82;4.97;;;7.20;99.90;;;;;;5028955;28;20032;-76
2022/04/30 02:00:14;;;;;;;9.48;4.70;;;7.20;99.90;;;;;;5026242;28;20025;-76
2022/04/30 02:02:44;;;;;;;7.65;5.13;;;7.20;99.90;;;;;;5045429;28;20033;-76
2022/04/30 02:05:09;;;;;;;6.65;4.60;;;7.20;99.90;;;;;;5043588;28;20087;-76
2022/04/30 02:07:37;;;;;;;8.50;4.53;;;7.10;99.90;;;;;;5030222;28;20056;-76
2022/04/30 02:10:02;;;;;;;6.30;4.70;;;7.00;99.90;;;;;;5031103;28;20037;-76
2022/04/30 02:12:31;;;;;;;9.93;5.32;;;7.00;99.90;;;;;;5028806;28;20025;-76
2022/04/30 02:14:57;;;;;;;6.55;4.95;;;6.90;99.90;;;;;;5033179;28;20029;-76
2022/04/30 02:17:22;;;;;;;8.75;4.50;;;6.90;99.90;;;;;;5025494;28;20033;-76
2022/04/30 02:22:38;;;;;;;6.07;4.68;;;6.70;99.90;;;;;;5042847;28;20086;-76
2022/04/30 02:25:09;;;;;;;7.18;3.88;;;6.60;99.90;;;;;;5029579;28;20037;-76
2022/04/30 02:27:38;;;;;;;10.20;5.00;;;6.60;99.90;;;;;;5030514;28;20120;-76
2022/04/30 02:30:06;;;;;;;6.70;4.97;;;6.60;99.90;;;;;;5044680;28;20037;-76
2022/04/30 02:32:48;;;;;;;5.68;4.13;;;6.40;99.90;;;;;;5044979;28;20034;-75
2022/04/30 02:35:15;;;;;;;8.38;4.45;;;6.40;99.90;;;;;;5049486;28;20370;-77
2022/04/30 02:37:44;;;;;;;7.95;5.10;;;6.30;99.90;;;;;;5003308;28;20640;-77
2022/04/30 02:40:13;;;;;;;9.10;4.80;;;6.30;99.90;;;;;;5029530;28;20503;-77
2022/04/30 02:42:39;;;;;;;7.47;5.10;;;6.30;99.90;;;;;;5018192;28;20064;-77
2022/04/30 02:45:06;;;;;;;6.80;4.10;;;6.30;99.90;;;;;;5028498;28;20291;-77
2022/04/30 02:47:31;;;;;;;8.80;4.85;;;6.20;99.90;;;;;;5030282;28;20030;-77
2022/04/30 02:49:57;;;;;;;8.43;4.85;;;6.20;99.90;;;;;;5031975;28;20128;-77
2022/04/30 02:52:23;;;;;;;9.50;5.10;;;6.10;99.90;;;;;;5031335;28;20113;-77
2022/04/30 02:54:48;;;;;;;10.55;5.00;;;6.00;99.90;;;;;;5012678;28;20034;-77
2022/04/30 02:57:14;;;;;;;12.68;5.60;;;6.00;99.90;;;;;;5027786;28;20041;-77
2022/04/30 02:59:55;;;;;;;10.57;5.68;;;6.00;99.90;;;;;;5013095;28;20469;-77
2022/04/30 03:02:21;;;;;;;13.07;6.38;;;5.90;99.90;;;;;;5042588;28;20575;-77
2022/04/30 03:04:51;;;;;;;7.55;5.95;;;5.90;99.90;;;;;;5045721;28;20092;-77
2022/04/30 03:07:19;;;;;;;9.00;5.60;;;5.80;99.90;;;;;;5030286;28;20790;-77
2022/04/30 03:09:47;;;;;;;17.10;6.63;;;5.80;99.90;;;;;;5030564;28;20389;-77
2022/04/30 03:12:13;;;;;;;10.45;6.05;;;5.70;99.90;;;;;;5040680;28;20029;-77
2022/04/30 03:14:38;;;;;;;10.82;6.53;;;5.70;99.90;;;;;;5011550;28;20489;-77
2022/04/30 03:22:32;;;;;;;12.45;6.32;;;5.60;99.90;;;;;;5046394;28;20377;-77
2022/04/30 03:24:58;;;;;;;15.35;5.40;;;5.50;99.90;;;;;;5013949;28;20025;-77
2022/04/30 03:27:24;;;;;;;10.45;7.13;;;5.40;99.90;;;;;;5012688;28;20041;-77
2022/04/30 03:29:49;;;;;;;12.85;6.63;;;5.40;99.90;;;;;;5031371;28;20033;-77
2022/04/30 03:32:15;;;;;;;11.57;6.40;;;5.50;99.90;;;;;;5045275;28;20037;-77
2022/04/30 03:34:40;;;;;;;15.68;6.80;;;5.40;99.90;;;;;;5042462;28;20075;-76
2022/04/30 03:37:06;;;;;;;14.88;6.18;;;5.30;99.90;;;;;;5029938;28;20478;-77
2022/04/30 03:39:31;;;;;;;10.43;6.43;;;5.30;99.90;;;;;;5032095;28;20033;-77
2022/04/30 03:41:57;;;;;;;10.45;6.47;;;5.20;99.90;;;;;;5027670;28;20072;-77
2022/04/30 03:44:23;;;;;;;13.40;6.55;;;5.10;99.90;;;;;;5028360;28;20033;-77
2022/04/30 03:46:49;;;;;;;11.57;6.22;;;5.10;99.90;;;;;;5008485;28;20394;-77
2022/04/30 03:49:15;;;;;;;12.77;6.75;;;5.10;99.90;;;;;;5043682;28;20034;-77
2022/04/30 03:51:41;;;;;;;10.60;6.93;;;5.10;99.90;;;;;;5027680;28;20083;-77
2022/04/30 03:54:06;;;;;;;12.35;7.57;;;5.10;99.90;;;;;;5007305;28;20162;-77
2022/04/30 03:56:32;;;;;;;11.32;7.35;;;5.10;99.90;;;;;;5041854;28;20487;-77
2022/04/30 03:58:57;;;;;;;8.82;6.65;;;5.00;99.90;;;;;;5024125;28;20018;-77
2022/04/30 04:01:24;;;;;;;11.18;6.57;;;5.00;99.90;;;;;;5043429;28;20557;-77
2022/04/30 04:03:50;;;;;;;12.48;6.85;;;5.00;99.90;;;;;;5027871;28;20497;-76
2022/04/30 04:06:16;;;;;;;12.43;7.07;;;5.00;99.90;;;;;;5026330;28;20037;-77
2022/04/30 04:08:42;;;;;;;17.90;7.15;;;5.00;99.90;;;;;;5026796;28;20041;-77
2022/04/30 04:11:10;;;;;;;13.13;6.72;;;5.00;99.90;;;;;;5006811;28;20029;-77
2022/04/30 04:19:06;;;;;;;11.90;7.00;;;4.80;99.90;;;;;;5042790;28;20083;-76
2022/04/30 04:21:31;;;;;;;10.82;7.65;;;4.80;99.90;;;;;;5039620;28;20049;-76
2022/04/30 04:26:41;;;;;;;10.40;6.93;;;4.80;99.90;;;;;;5027701;28;20187;-77
2022/04/30 04:29:07;;;;;;;10.25;6.90;;;4.70;99.90;;;;;;5027521;28;20116;-77
2022/04/30 04:31:32;;;;;;;10.65;6.65;;;4.70;99.90;;;;;;5027964;28;20029;-77
2022/04/30 04:33:59;;;;;;;11.30;7.30;;;4.70;99.90;;;;;;5027386;28;20029;-76
2022/04/30 04:36:24;;;;;;;14.07;7.45;;;4.70;99.90;;;;;;5013809;28;20507;-77
2022/04/30 04:38:50;;;;;;;15.85;6.95;;;4.60;99.90;;;;;;5010431;28;20033;-77
2022/04/30 04:41:15;;;;;;;11.98;6.85;;;4.70;99.90;;;;;;5004117;28;20065;-77
2022/04/30 04:43:41;;;;;;;14.57;7.70;;;4.70;99.90;;;;;;5028998;28;20052;-76
2022/04/30 04:46:06;;;;;;;13.55;7.13;;;4.80;99.90;;;;;;5042943;28;20116;-77
2022/04/30 04:48:32;;;;;;;14.05;7.38;;;4.80;99.90;;;;;;5038749;28;20053;-77
2022/04/30 04:50:58;;;;;;;18.90;8.27;;;4.80;99.90;;;;;;5040041;28;20336;-78
2022/04/30 04:53:23;;;;;;;13.48;6.95;;;4.80;99.90;;;;;;4990200;28;20053;-77
2022/04/30 04:55:49;;;;;;;10.40;7.20;;;4.90;99.90;;;;;;5008431;28;20026;-77
2022/04/30 04:58:15;;;;;;;12.02;6.63;;;4.90;99.90;;;;;;4985940;28;20065;-77
2022/04/30 05:00:40;;;;;;;17.00;7.28;;;5.00;99.90;;;;;;4983587;28;20064;-76
2022/04/30 05:03:07;;;;;;;15.80;6.68;;;5.00;99.90;;;;;;5016381;28;20030;-77
2022/04/30 05:05:33;;;;;;;12.68;7.57;;;5.00;99.90;;;;;;5006964;28;20446;-76
2022/04/30 05:07:58;;;;;;;11.55;6.50;;;5.00;99.90;;;;;;5007898;28;20457;-77
2022/04/30 05:10:24;;;;;;;13.50;6.63;;;5.00;99.90;;;;;;5009700;28;20062;-76
2022/04/30 05:12:49;;;;;;;15.60;7.65;;;5.00;99.90;;;;;;5004406;28;20121;-77
2022/04/30 05:15:15;;;;;;;12.80;6.20;;;5.00;99.90;;;;;;5024245;28;20042;-76
2022/04/30 05:17:40;;;;;;;12.73;7.15;;;5.10;99.90;;;;;;5008460;28;20033;-76
2022/04/30 05:20:06;;;;;;;17.30;8.48;;;5.20;99.90;;;;;;5004702;28;20265;-77
2022/04/30 05:22:33;;;;;;;15.32;6.95;;;5.20;99.90;;;;;;4988519;28;20064;-76
2022/04/30 05:24:58;;;;;;;16.85;8.07;;;5.20;99.90;;;;;;5005063;28;20032;-76
2022/04/30 05:27:24;;;;;;;13.20;6.88;;;5.30;99.90;;;;;;5005521;28;20042;-76
2022/04/30 05:29:49;;;;;;;12.07;7.00;;;5.40;99.90;;;;;;5022085;28;20185;-77
2022/04/30 05:32:15;;;;;;;13.48;7.40;;;5.50;99.90;;;;;;4992101;28;20117;-77
2022/04/30 05:34:40;;;;;;;17.98;7.13;;;5.60;99.90;;;;;;4985114;28;20145;-77
2022/04/30 05:37:06;;;;;;;11.95;6.97;;;5.70;99.90;;;;;;5005954;28;20034;-76
2022/04/30 05:39:31;;;;;;;12.48;7.00;;;5.70;99.90;;;;;;5006069;28;20117;-77
2022/04/30 05:41:57;;;;;;;12.95;7.28;;;5.80;99.90;;;;;;5005344;28;20030;-77
2022/04/30 05:44:22;;;;;;;10.75;6.22;;;5.90;99.90;;;;;;5024933;28;20033;-76
2022/04/30 05:46:48;;;;;;;18.42;7.57;;;6.00;99.90;;;;;;5007090;28;20081;-77
2022/04/30 05:49:13;;;;;;;14.07;7.32;;;6.10;99.90;;;;;;5022286;28;20029;-76
2022/04/30 05:51:39;;;;;;;12.82;6.30;;;6.00;99.90;;;;;;4992038;28;20022;-76
2022/04/30 05:54:05;;;;;;;14.77;6.75;;;6.10;99.90;;;;;;4990335;28;20556;-76
2022/04/30 05:56:30;;;;;;;11.35;6.75;;;6.20;99.90;;;;;;5022099;28;20226;-76
2022/04/30 05:58:56;;;;;;;12.45;6.63;;;6.30;99.90;;;;;;4993547;28;20061;-77
2022/04/30 06:01:21;;;;;;;12.98;6.25;;;6.40;99.90;;;;;;5026693;28;20028;-77
2022/04/30 06:03:47;;;;;;;12.75;5.90;;;6.40;99.90;;;;;;5035836;28;20030;-77
2022/04/30 06:06:12;;;;;;;15.98;6.82;;;6.40;99.90;;;;;;5006625;28;20386;-77
2022/04/30 06:08:38;;;;;;;13.65;7.10;;;6.50;99.90;;;;;;5005887;28;20042;-79
2022/04/30 06:11:03;;;;;;;13.73;6.80;;;6.60;99.90;;;;;;5005650;28;20030;-77
2022/04/30 06:13:29;;;;;;;15.57;6.65;;;6.70;99.90;;;;;;5003884;28;20034;-77
2022/04/30 06:15:55;;;;;;;14.02;6.28;;;6.70;99.90;;;;;;4990975;28;20335;-77
2022/04/30 06:18:20;;;;;;;15.98;6.13;;;6.90;99.90;;;;;;5003269;28;20281;-77
2022/04/30 06:20:46;;;;;;;12.25;6.75;;;7.00;99.90;;;;;;5004572;28;20061;-77
2022/04/30 06:23:15;;;;;;;9.95;6.47;;;7.10;99.90;;;;;;5007366;28;20136;-77
2022/04/30 06:25:41;;;;;;;19.65;7.50;;;7.20;99.90;;;;;;5018566;28;20029;-77
2022/04/30 06:28:08;;;;;;;12.02;7.53;;;7.40;99.90;;;;;;5037853;28;20030;-77
2022/04/30 06:30:35;;;;;;;14.40;6.68;;;7.50;99.90;;;;;;5005124;28;20044;-77
2022/04/30 06:33:01;;;;;;;9.27;5.80;;;7.60;99.90;;;;;;5036170;28;20036;-77
2022/04/30 06:35:26;;;;;;;13.10;5.75;;;7.70;99.90;;;;;;4988198;28;20077;-77
2022/04/30 06:37:52;;;;;;;15.40;6.65;;;7.80;99.90;;;;;;5018794;28;20033;-76
2022/04/30 06:40:18;;;;;;;14.25;5.97;;;8.00;99.90;;;;;;5025873;28;20107;-77
2022/04/30 06:42:44;;;;;;;9.52;5.78;;;8.10;99.90;;;;;;5010628;28;20291;-77
2022/04/30 06:45:10;;;;;;;13.50;5.93;;;8.10;99.90;;;;;;5022997;28;20381;-77
2022/04/30 06:47:36;;;;;;;14.75;7.18;;;8.30;99.90;;;;;;5008710;28;20053;-77
2022/04/30 06:50:02;;;;;;;10.32;5.97;;;8.40;99.90;;;;;;4990741;28;20031;-77
2022/04/30 06:52:28;;;;;;;9.55;6.65;;;8.40;99.90;;;;;;5042092;28;20641;-77
2022/04/30 06:57:38;;;;;;;9.82;6.43;;;8.80;99.90;;;;;;5039770;28;20083;-77
2022/04/30 07:01:24;;;;;;;11.90;6.25;;;9.00;99.90;;;;;;5010749;28;20429;-78
2022/04/30 07:02:50;;;;;;;;;;;9.40;99.90;;;;;;5017684;28;20029;-77
2022/04/30 07:05:15;;;;;;;16.93;6.17;;;9.70;99.90;;;;;;5025617;28;19940;-78
2022/04/30 07:07:41;;;;;;;13.13;5.70;;;10.00;99.90;;;;;;4992724;28;20269;-78
2022/04/30 07:10:07;;;;;;;8.65;4.88;;;10.20;99.90;;;;;;5007652;28;20045;-78
2022/04/30 07:12:32;;;;;;;11.63;4.95;;;10.40;99.90;;;;;;5045025;28;20413;-78
2022/04/30 07:14:58;;;;;;;10.93;5.13;;;10.60;99.90;;;;;;5010397;28;20040;-78
2022/04/30 07:17:23;;;;;;;13.48;4.88;;;10.70;99.90;;;;;;5007347;28;20113;-78
2022/04/30 07:19:49;;;;;;;8.75;5.13;;;10.90;99.90;;;;;;4991788;28;20034;-78
2022/04/30 07:22:15;;;;;;;10.27;4.65;;;11.10;99.90;;;;;;5010269;28;20420;-78
2022/04/30 07:24:40;;;;;;;6.90;4.82;;;11.00;99.90;;;;;;4987585;28;20041;-77
2022/04/30 07:27:06;;;;;;;8.75;5.70;;;11.20;99.90;;;;;;5007641;28;20057;-78
2022/04/30 07:29:32;;;;;;;11.57;5.43;;;11.40;99.90;;;;;;5009065;28;20485;-78
2022/04/30 07:31:59;;;;;;;7.05;4.40;;;11.50;99.90;;;;;;5011955;28;20095;-78
2022/04/30 07:34:24;;;;;;;12.27;5.15;;;11.90;99.90;;;;;;5021715;28;20493;-78
2022/04/30 07:36:50;;;;;;;9.57;4.13;;;12.10;99.90;;;;;;5007483;28;20032;-78
2022/04/30 07:39:15;;;;;;;9.88;4.32;;;12.30;99.90;;;;;;5038702;28;20507;-78
2022/04/30 07:41:41;;;;;;;6.10;3.58;;;12.50;99.90;;;;;;5016972;28;20030;-78
2022/04/30 07:44:06;;;;;;;6.95;3.58;;;13.00;99.90;;;;;;5024098;28;20523;-78
2022/04/30 07:46:32;;;;;;;6.75;4.07;;;13.10;99.90;;;;;;5041060;28;20049;-79
2022/04/30 07:48:58;;;;;;;7.85;3.60;;;13.20;99.90;;;;;;5026478;28;20028;-78
2022/04/30 07:51:33;;;;;;;9.80;4.00;;;13.20;99.90;;;;;;4989919;28;20496;-78
2022/04/30 07:54:01;;;;;;;6.47;3.80;;;13.30;99.90;;;;;;5031227;28;20037;-78
2022/04/30 07:56:27;;;;;;;7.63;3.72;;;13.30;99.90;;;;;;5028612;28;20388;-78
2022/04/30 07:58:52;;;;;;;4.10;2.85;;;13.40;99.90;;;;;;5044252;28;20053;-78
2022/04/30 08:01:18;;;;;;;4.70;2.72;;;13.70;99.90;;;;;;5012360;28;20481;-78
2022/04/30 08:03:44;;;;;;;4.65;3.40;;;13.80;99.90;;;;;;5041773;28;20032;-78
2022/04/30 08:06:09;;;;;;;7.07;3.00;;;14.10;99.90;;;;;;5026259;28;20052;-77
2022/04/30 08:08:35;;;;;;;4.95;3.30;;;14.30;99.90;;;;;;5027073;28;20033;-78
2022/04/30 08:11:00;;;;;;;8.82;3.15;;;14.40;99.90;;;;;;5029209;28;20556;-77
2022/04/30 08:13:26;;;;;;;5.60;2.95;;;14.50;99.90;;;;;;4999633;28;20026;-78
2022/04/30 08:15:52;;;;;;;4.28;3.40;;;14.80;99.90;;;;;;5011339;28;20116;-77
2022/04/30 08:18:18;;;;;;;6.97;3.45;;;15.10;99.80;;;;;;5007153;28;20164;-78
2022/04/30 08:20:44;;;;;;;5.22;2.90;;;15.30;99.80;;;;;;5010963;28;20034;-78
2022/04/30 08:23:10;;;;;;;6.45;3.40;;;15.50;99.90;;;;;;5002935;28;20505;-77
2022/04/30 08:25:36;;;;;;;5.05;3.15;;;15.90;97.80;;;;;;5009151;28;20038;-78
2022/04/30 08:28:02;;;;;;;6.75;3.05;;;16.00;96.50;;;;;;5008816;28;20029;-78
2022/04/30 08:30:28;;;;;;;7.53;3.00;;;16.10;95.30;;;;;;5006745;28;20046;-78
2022/04/30 08:32:54;;;;;;;5.05;3.00;;;16.30;94.00;;;;;;5024179;28;20038;-78
2022/04/30 08:35:19;;;;;;;7.32;3.72;;;16.30;93.00;;;;;;5023918;28;20052;-78
2022/04/30 08:37:45;;;;;;;8.93;3.30;;;16.40;91.00;;;;;;5009008;28;20026;-78
2022/04/30 08:40:11;;;;;;;7.28;3.22;;;16.30;91.30;;;;;;5004651;28;20054;-78
2022/04/30 08:42:36;;;;;;;6.80;3.30;;;16.60;86.00;;;;;;4992679;28;20022;-78
2022/04/30 08:45:03;;;;;;;5.88;3.75;;;16.50;83.40;;;;;;5002913;28;20041;-79
2022/04/30 08:47:31;;;;;;;6.00;2.75;;;16.20;82.30;;;;;;5006850;28;20666;-78
2022/04/30 08:49:57;;;;;;;5.50;3.10;;;16.20;83.80;;;;;;4993511;28;20125;-78
2022/04/30 08:52:22;;;;;;;6.75;3.20;;;15.80;80.50;;;;;;5008404;28;20116;-78
2022/04/30 08:54:48;;;;;;;5.85;2.95;;;15.60;83.80;;;;;;5008088;28;20396;-78
2022/04/30 08:57:15;;;;;;;5.85;3.33;;;15.60;85.20;;;;;;4991118;28;20037;-78
2022/04/30 08:59:41;;;;;;;5.82;3.10;;;15.70;82.00;;;;;;5005837;28;20052;-78
2022/04/30 09:02:10;;;;;;;6.85;2.83;;;15.60;82.00;;;;;;5006275;28;20034;-78
2022/04/30 09:04:44;;;;;;;7.13;3.35;;;15.60;82.70;;;;;;4989623;28;20042;-78
2022/04/30 09:07:14;;;;;;;5.97;3.40;;;15.70;80.70;;;;;;4990875;28;20166;-78
2022/04/30 09:09:40;;;;;;;7.07;3.65;;;15.70;77.90;;;;;;4995215;28;20107;-78
2022/04/30 09:12:13;;;;;;;6.90;3.47;;;15.60;79.70;;;;;;4996779;28;20493;-78
2022/04/30 09:14:42;;;;;;;6.95;3.40;;;15.60;78.60;;;;;;4993918;28;20547;-78
2022/04/30 09:17:09;;;;;;;5.18;2.58;;;15.50;79.10;;;;;;5033201;28;20018;-78
2022/04/30 09:19:49;;;;;;;3.10;2.72;;;15.60;80.00;;;;;;5007158;28;20096;-79
2022/04/30 09:22:15;;;;;;;6.93;2.92;;;15.60;81.40;;;;;;5031187;28;20042;-78
2022/04/30 09:24:45;;;;;;;9.45;3.22;;;15.70;79.60;;;;;;5022230;28;20072;-78
2022/04/30 09:27:13;;;;;;;5.63;3.47;;;15.80;78.00;;;;;;5020573;28;20551;-78
2022/04/30 09:29:39;;;;;;;7.95;3.92;;;15.90;78.40;;;;;;5029486;28;20029;-78
2022/04/30 09:32:05;;;;;;;7.35;4.30;;;15.90;76.40;;;;;;5022440;28;20032;-78
2022/04/30 09:37:49;;;;;;;4.95;3.95;;;16.30;75.70;;;;;;5026210;28;20032;-78
2022/04/30 09:40:14;;;;;;;6.88;3.60;;;16.30;77.70;;;;;;5021309;28;20037;-78
2022/04/30 09:42:40;;;;;;;6.10;4.15;;;16.60;75.10;;;;;;5042916;28;20025;-78
2022/04/30 09:45:07;;;;;;;7.47;3.47;;;16.80;74.80;;;;;;5022531;28;20063;-78
2022/04/30 09:47:33;;;;;;;7.85;3.42;;;16.80;73.60;;;;;;5025303;28;20044;-78
2022/04/30 09:55:31;;;;;;;5.75;3.90;;;17.00;73.40;;;;;;5018722;28;20416;-79
2022/04/30 09:58:03;;;;;;;3.97;3.15;;;17.20;69.50;;;;;;5041546;28;20041;-79
2022/04/30 10:00:32;;;;;;;6.88;3.40;;;17.20;73.80;;;;;;5002532;28;20053;-79
2022/04/30 10:03:02;;;;;;;4.32;3.55;;;17.40;76.10;;;;;;5009460;28;20040;-79
2022/04/30 10:05:32;;;;;;;8.48;3.58;;;17.70;72.10;;;;;;5020572;28;20073;-79
2022/04/30 10:07:58;;;;;;;5.07;3.08;;;17.80;69.80;;;;;;5040091;28;20471;-79
2022/04/30 10:10:44;;;;;;;5.32;3.70;;;18.00;71.60;;;;;;5022126;28;20498;-80
2022/04/30 10:13:30;;;;;;;5.45;3.38;;;18.40;67.20;;;;;;5018246;28;20455;-79
2022/04/30 10:15:57;;;;;;;3.72;3.08;;;18.50;65.90;;;;;;5032058;28;20100;-79
2022/04/30 10:18:41;;;;;;;5.43;3.25;;;18.40;64.60;;;;;;5022459;28;20037;-79
2022/04/30 10:21:16;;;;;;;4.82;3.20;;;18.20;66.10;;;;;;5010138;28;20038;-80
2022/04/30 10:23:41;;;;;;;5.88;3.20;;;18.10;67.70;;;;;;5012066;28;20169;-79
2022/04/30 10:26:07;;;;;;;8.02;3.83;;;18.20;67.20;;;;;;5024154;28;20134;-79
2022/04/30 10:28:33;;;;;;;4.35;3.35;;;18.10;66.20;;;;;;5044431;28;20147;-80
2022/04/30 10:30:59;;;;;;;5.72;3.30;;;18.20;67.90;;;;;;5024153;28;20025;-79
2022/04/30 10:33:25;;;;;;;5.15;3.25;;;18.30;67.50;;;;;;5032148;28;20107;-79
2022/04/30 10:35:52;;;;;;;5.50;3.55;;;18.40;67.80;;;;;;5029528;28;21128;-79
2022/04/30 10:38:19;;;;;;;4.97;3.45;;;18.60;65.20;;;;;;5029289;28;20676;-79
2022/04/30 10:40:51;;;;;;;5.95;3.83;;;18.80;64.00;;;;;;5009398;28;20128;-80
2022/04/30 10:43:26;;;;;;;6.43;3.72;;;18.80;63.30;;;;;;5030690;28;20034;-79
2022/04/30 10:45:52;;;;;;;4.70;3.35;;;18.90;67.00;;;;;;5017041;28;20038;-80
2022/04/30 10:48:19;;;;;;;3.53;3.03;;;19.10;65.80;;;;;;5009661;28;20045;-79
2022/04/30 10:53:24;;;;;;;5.38;3.08;;;19.50;61.00;;;;;;4987664;28;20449;-79
2022/04/30 10:55:49;;;;;;;4.50;2.67;;;19.40;57.90;;;;;;4999663;28;20027;-79
2022/04/30 10:58:24;;;;;;;4.97;3.00;;;19.30;61.40;;;;;;4976924;28;20434;-79
2022/04/30 11:00:51;;;;;;;3.00;2.78;;;19.30;61.00;;;;;;4994654;28;20039;-79
2022/04/30 11:03:17;;;;;;;6.68;3.20;;;19.60;62.10;;;;;;5009156;28;20429;-79
2022/04/30 11:05:43;;;;;;;4.18;3.78;;;20.00;59.80;;;;;;4981888;28;20653;-79
2022/04/30 11:08:09;;;;;;;6.93;3.25;;;20.10;58.90;;;;;;4993553;28;20080;-79
2022/04/30 11:10:34;;;;;;;8.25;3.65;;;20.10;59.30;;;;;;4999903;28;20417;-79
2022/04/30 11:13:06;;;;;;;5.20;3.35;;;20.00;56.10;;;;;;4986227;28;20131;-79
2022/04/30 11:15:32;;;;;;;3.90;2.95;;;19.80;57.00;;;;;;5001586;28;20033;-79
2022/04/30 11:17:58;;;;;;;6.72;3.47;;;19.70;57.10;;;;;;4992450;28;20039;-79
2022/04/30 11:20:24;;;;;;;5.93;3.15;;;19.70;57.10;;;;;;5000352;28;20030;-80
2022/04/30 11:22:52;;;;;;;4.10;2.53;;;19.70;58.00;;;;;;4994737;28;20380;-79
2022/04/30 11:25:17;;;;;;;7.53;3.60;;;19.80;56.90;;;;;;5000620;28;20497;-79
2022/04/30 11:27:43;;;;;;;6.18;3.30;;;19.90;54.40;;;;;;5018152;28;20093;-79
2022/04/30 11:30:09;;;;;;;5.35;3.38;;;20.00;57.90;;;;;;5007148;28;20034;-79
2022/04/30 11:32:34;;;;;;;4.60;3.28;;;20.30;58.10;;;;;;5013284;28;20030;-79
2022/04/30 11:35:01;;;;;;;5.40;3.03;;;20.50;56.20;;;;;;4995359;28;20037;-80
2022/04/30 11:37:26;;;;;;;8.27;3.92;;;20.60;56.50;;;;;;4994998;28;20061;-80
2022/04/30 11:39:52;;;;;;;4.22;3.20;;;20.70;53.90;;;;;;5017460;28;20066;-80
2022/04/30 11:42:23;;;;;;;5.82;3.58;;;20.70;54.50;;;;;;5006905;28;20293;-80
2022/04/30 11:44:52;;;;;;;3.50;3.20;;;20.50;53.70;;;;;;5007647;28;20087;-80
2022/04/30 11:47:20;;;;;;;4.53;2.58;;;20.40;53.90;;;;;;5010553;28;20124;-79
2022/04/30 11:49:45;;;;;;;4.45;2.65;;;20.30;53.00;;;;;;5007784;28;20026;-80
2022/04/30 11:52:11;;;;;;;3.00;2.63;;;20.20;53.60;;;;;;4995351;28;20036;-80
2022/04/30 11:54:38;;;;;;;4.70;2.83;;;20.10;54.50;;;;;;4993224;28;20034;-80
2022/04/30 11:57:04;;;;;;;4.85;3.45;;;20.00;54.50;;;;;;5008761;28;20030;-80
2022/04/30 11:59:34;;;;;;;6.18;3.47;;;20.20;54.10;;;;;;5010742;28;20590;-80
2022/04/30 12:02:06;;;;;;;7.88;2.90;;;20.20;51.00;;;;;;4994422;28;20116;-80
2022/04/30 12:04:33;;;;;;;3.50;3.00;;;20.30;53.00;;;;;;4995576;28;20390;-80
2022/04/30 12:07:00;;;;;;;6.22;3.47;;;20.40;54.70;;;;;;4998602;28;20030;-80
2022/04/30 12:09:30;;;;;;;4.45;3.03;;;20.80;52.50;;;;;;4981249;28;20116;-80
2022/04/30 12:11:56;;;;;;;5.70;2.63;;;20.90;54.70;;;;;;4995372;28;20436;-80
2022/04/30 12:14:21;;;;;;;3.55;2.75;;;21.20;54.20;;;;;;4983780;28;20039;-80
2022/04/30 12:16:47;;;;;;;3.67;3.10;;;21.60;53.10;;;;;;4980360;28;20109;-80
2022/04/30 12:25:01;;;;;;;4.32;2.63;;;21.70;50.50;;;;;;4981497;28;20080;-80
2022/04/30 12:27:28;;;;;;;3.92;3.22;;;21.80;52.30;;;;;;4981889;28;20062;-80
2022/04/30 12:30:00;;;;;;;5.20;2.78;;;21.70;51.00;;;;;;4978263;28;20057;-80
2022/04/30 12:32:26;;;;;;;4.88;3.00;;;21.60;50.30;;;;;;4977817;28;20133;-81
2022/04/30 12:34:52;;;;;;;3.53;2.63;;;21.50;51.00;;;;;;4981669;28;20483;-81
2022/04/30 12:37:18;;;;;;;3.00;2.40;;;21.40;49.50;;;;;;4995680;28;20494;-80
2022/04/30 12:39:44;;;;;;;5.50;2.85;;;21.60;53.00;;;;;;4987494;28;20026;-80
2022/04/30 12:42:11;;;;;;;2.75;2.40;;;21.80;52.50;;;;;;4629293;28;10000223;-81
2022/04/30 12:44:36;;;;;;;4.93;2.70;;;22.20;49.90;;;;;;4993376;28;20041;-80
2022/04/30 12:47:02;;;;;;;4.97;2.90;;;22.20;49.80;;;;;;4982095;28;20049;-80
2022/04/30 12:49:28;;;;;;;2.67;2.45;;;22.20;49.80;;;;;;4993723;28;20045;-81
2022/04/30 12:51:53;;;;;;;3.08;2.78;;;22.30;49.30;;;;;;4970590;28;20042;-81
2022/04/30 12:54:19;;;;;;;3.65;3.17;;;22.40;46.90;;;;;;4977187;28;20452;-80
2022/04/30 12:56:45;;;;;;;5.50;3.05;;;22.10;47.70;;;;;;4980410;28;20089;-80
2022/04/30 12:59:11;;;;;;;5.85;3.10;;;22.00;47.50;;;;;;4976282;28;20555;-80
2022/04/30 13:01:39;;;;;;;4.18;3.50;;;21.90;47.80;;;;;;4995214;28;20117;-80
2022/04/30 13:04:05;;;;;;;4.30;3.10;;;21.90;48.40;;;;;;5001513;28;20475;-81
2022/04/30 13:06:30;;;;;;;4.50;2.60;;;22.00;46.80;;;;;;4981971;28;20113;-80
2022/04/30 13:14:24;;;;;;;4.70;2.75;;;22.00;49.30;;;;;;4993222;28;20068;-80
2022/04/30 13:16:50;;;;;;;3.80;2.72;;;22.10;48.40;;;;;;4980731;28;20054;-80
2022/04/30 13:19:16;;;;;;;4.10;3.17;;;22.20;48.20;;;;;;4977453;28;20030;-80
2022/04/30 13:21:46;;;;;;;6.07;3.22;;;22.30;48.70;;;;;;4989234;28;20500;-80
2022/04/30 13:24:16;;;;;;;5.68;2.90;;;22.50;48.20;;;;;;4993753;28;20038;-80
2022/04/30 13:26:42;;;;;;;6.07;3.00;;;22.60;45.80;;;;;;4980090;28;20294;-80
2022/04/30 13:29:10;;;;;;;5.15;3.55;;;22.50;46.40;;;;;;4978268;28;20037;-80
2022/04/30 13:31:39;;;;;;;5.80;3.85;;;22.50;47.60;;;;;;4994052;28;20181;-80
2022/04/30 13:34:05;;;;;;;3.28;2.97;;;22.40;47.70;;;;;;4979777;28;20125;-80